WetterOnline ( https://www.wetteronline.de )

Wetter aktuell Visby

Aktuelles Wetter: Visby (47m)

6-stündlich | Neueste Meldungen
Ortszeit Temperatur Wetter
So, 23.02. 13:00 6.5° C wolkenlos
So, 23.02. 7:00 4.9° C leicht bewölkt
So, 23.02. 1:00 3.8° C fast wolkenlos
Sa, 22.02. 19:00 5.1° C wolkenlos
Sa, 22.02. 13:00 6.3° C bedeckt
Sa, 22.02. 7:00 5.4° C leichte Schauer
Sa, 22.02. 1:00 5.2° C bewölkt
Fr, 21.02. 19:00 5.0° C wolkenlos
Ortszeit Temperatur Wetter
So, 23.02. 17:00 5.2° C bedeckt
So, 23.02. 16:50 5° C bewölkt
So, 23.02. 16:20 5° C leicht bewölkt
So, 23.02. 16:00 5.4° C leicht bewölkt
So, 23.02. 15:50 6° C leicht bewölkt
So, 23.02. 15:20 6° C leicht bewölkt
So, 23.02. 15:00 6.1° C fast wolkenlos
So, 23.02. 14:20 6° C leicht bewölkt
So, 23.02. 14:00 6.4° C wolkenlos
So, 23.02. 13:20 6° C -
Ortszeit Relative Feuchte Sichtweite
So, 23.02. 13:00 74% 30 km
So, 23.02. 7:00 74% 16 km
So, 23.02. 1:00 76% 27 km
Sa, 22.02. 19:00 76% 27 km
Sa, 22.02. 13:00 89% 25 km
Sa, 22.02. 7:00 94% 10 km
Sa, 22.02. 1:00 84% 45 km
Fr, 21.02. 19:00 74% 22 km
Ortszeit Relative Feuchte Sichtweite
So, 23.02. 17:00 80% 30 km
So, 23.02. 16:50 81% >10 km
So, 23.02. 16:20 81% >10 km
So, 23.02. 16:00 77% 35 km
So, 23.02. 15:50 75% >10 km
So, 23.02. 15:20 75% >10 km
So, 23.02. 15:00 75% 29 km
So, 23.02. 14:20 75% >10 km
So, 23.02. 14:00 74% 35 km
So, 23.02. 13:20 75% >10 km
Ortszeit Niederschlagsmenge Niederschlagsart
So, 23.02. 13:00 0.0 l/m2 -
So, 23.02. 7:00 0.0 l/m2 -
So, 23.02. 1:00 0.0 l/m2 -
Sa, 22.02. 19:00 0.1 l/m2 in 12 Std. Regenschauer
Sa, 22.02. 13:00 0.1 l/m2 in 6 Std. Regenschauer
Sa, 22.02. 7:00 1 l/m2 in 12 Std. Regen
Sa, 22.02. 1:00 0.0 l/m2 in 6 Std. -
Fr, 21.02. 19:00 0.4 l/m2 in 12 Std. -
Ortszeit Niederschlagsmenge Niederschlagsart
So, 23.02. 17:00 0.0 l/m2 in 1 Std. -
So, 23.02. 16:50 keine Meldung -
So, 23.02. 16:20 keine Meldung -
So, 23.02. 16:00 0.0 l/m2 in 1 Std. -
So, 23.02. 15:50 keine Meldung -
So, 23.02. 15:20 keine Meldung -
So, 23.02. 15:00 0.0 l/m2 in 1 Std. -
So, 23.02. 14:20 keine Meldung -
So, 23.02. 14:00 0.0 l/m2 in 1 Std. -
So, 23.02. 13:20 keine Meldung -
Ortszeit Stärke Spitze Richtung
km/h Bft. km/h Grad Sektor
So, 23.02. 13:00 32 5 47 260° W
So, 23.02. 7:00 40 6 58 250° W
So, 23.02. 1:00 43 6 61 250° W
Sa, 22.02. 19:00 54 7 - 260° W
Sa, 22.02. 13:00 58 7 - 220° SW
Sa, 22.02. 7:00 54 7 79 220° SW
Sa, 22.02. 1:00 36 5 - 220° SW
Fr, 21.02. 19:00 25 4 36 230° SW
Ortszeit Stärke Spitze Richtung
km/h Bft. km/h Grad Sektor
So, 23.02. 17:00 25 4 36 250° W
So, 23.02. 16:50 26 4 - 250° W
So, 23.02. 16:20 26 4 - 250° W
So, 23.02. 16:00 25 4 36 260° W
So, 23.02. 15:50 24 4 - 250° W
So, 23.02. 15:20 24 4 - 250° W
So, 23.02. 15:00 25 4 40 250° W
So, 23.02. 14:20 26 4 - 250° W
So, 23.02. 14:00 25 4 47 250° W
So, 23.02. 13:20 31 5 - 250° W
Ortszeit Untergrenze Bedeckung Gattung
total tief tief mittel hoch
So, 23.02. 13:00 - 0/8 0/8 - - -
So, 23.02. 7:00 1500 m 2/8 2/8 - - -
So, 23.02. 1:00 930 m 1/8 1/8 - - -
Sa, 22.02. 19:00 - 0/8 0/8 - - -
Sa, 22.02. 13:00 330 m 8/8 8/8 - - -
Sa, 22.02. 7:00 210 m 8/8 8/8 - - -
Sa, 22.02. 1:00 480 m 8/8 7/8 - - -
Fr, 21.02. 19:00 - 0/8 0/8 - - -
Ortszeit Bedeckungsgrad in Achtel und Wolkenuntergrenze
So, 23.02. 17:00 7(1050m) 8(1290m)
So, 23.02. 16:50 5-7(960m)
So, 23.02. 16:20 1-2(990m)
So, 23.02. 16:00 2(1350m)
So, 23.02. 15:50 1-2(1350m)
So, 23.02. 15:20 1-2(1350m)
So, 23.02. 15:00 1(1440m)
So, 23.02. 14:20 3-4(1110m)
So, 23.02. 14:00 keine Wolken
So, 23.02. 13:20 keine Wolken(unter 1500 m)
Ortszeit Luftdruck NN (hPa) Tendenz (hPa in 3 Std.)
So, 23.02. 13:00 991 + 0,3
So, 23.02. 7:00 989 - 0,7
So, 23.02. 1:00 991 + 1,2
Sa, 22.02. 19:00 988 + 1,6
Sa, 22.02. 13:00 990 - 4,8
Sa, 22.02. 7:00 1000 - 3,8
Sa, 22.02. 1:00 1006 - 1,5
Fr, 21.02. 19:00 1009 + 1,7
Ortszeit Luftdruck NN (hPa) Tendenz (hPa in 3 Std.)
So, 23.02. 17:00 991 - 0,3
So, 23.02. 16:50 990 keine Meldung
So, 23.02. 16:20 990 keine Meldung
So, 23.02. 16:00 991 - 0,1
So, 23.02. 15:50 990 keine Meldung
So, 23.02. 15:20 990 keine Meldung
So, 23.02. 15:00 991 + 0,3
So, 23.02. 14:20 990 keine Meldung
So, 23.02. 14:00 991 + 0,3
So, 23.02. 13:20 990 keine Meldung
Ortszeit Schneehöhe (cm)
So, 23.02. 13:00 -
So, 23.02. 7:00 -
So, 23.02. 1:00 -
Sa, 22.02. 19:00 -
Sa, 22.02. 13:00 -
Sa, 22.02. 7:00 -
Sa, 22.02. 1:00 -
Fr, 21.02. 19:00 -
Ortszeit Schneehöhe (cm)
So, 23.02. 17:00 -
So, 23.02. 16:50 -
So, 23.02. 16:20 -
So, 23.02. 16:00 -
So, 23.02. 15:50 -
So, 23.02. 15:20 -
So, 23.02. 15:00 -
So, 23.02. 14:20 -
So, 23.02. 14:00 -
So, 23.02. 13:20 -
Link zu dieser Seite / Seite empfehlen

Das Wetter in ...